• Join FlightAware (Why Join?)
  • Login
  • US Flag 
10:26AM EST


 

Airport Tracker/Info


-or-


 

Live Flight TrackerFlight Track Log ✈ EJA396 ✈ 26-Sep-2013 ✈ KPIT - KSER

Flight Track Log - Related Links

Times and Time Zones

All times are in EDT time to prevent confusion due to time zone crossing. See the EJA396 flight status page for this flight to view local times or setup timezone preferences in your user account.

Time Position Orientation Groundspeed Altitude Reporting Facility
EDT Latitude Longitude Course Direction KTS MPH feet Rate Location/Type
03:35PM 40.5011 -80.3053 270° West 210 242 3,600  Level Cleveland Center
03:36PM 40.5000 -80.4128 269° West 245 282 9,000 4,080 Climbing Cleveland Center
03:37PM 40.4989 -80.5158 269° West 287 330 12,100 2,580 Climbing Cleveland Center
03:38PM 40.4964 -80.6403 269° West 338 389 14,400 2,460 Climbing Cleveland Center
03:39PM 40.4933 -80.7772 268° West 371 427 17,300 2,640 Climbing Cleveland Center
03:41PM 40.3091 -80.9630 270° West  Level Estimated
03:41PM 40.4900 -80.9142 268° West 377 434 19,900  Level Cleveland Center
03:42PM 40.4878 -81.0794 269° West 378 435 23,300 2,700 Climbing Cleveland Center
03:43PM 40.4831 -81.2208 268° West 386 444 25,500 1,980 Climbing Cleveland Center
03:44PM 40.4808 -81.3667 269° West 399 459 27,400 1,200 Climbing Cleveland Center
03:45PM 40.4761 -81.5211 268° West 422 486 28,000 720 Climbing Cleveland Center
03:46PM 40.4711 -81.6894 268° West 449 517 28,900 960 Climbing Cleveland Center
03:47PM 40.4650 -81.8864 268° West 457 526 30,000 480 Climbing Cleveland Center
03:48PM 40.4586 -82.0586 267° West 464 534 30,000  Level Cleveland Center
03:49PM 40.3981 -82.2167 243° Southwest 486 559 30,000  Level Indianapolis Center
03:50PM 40.3100 -82.3544 230° Southwest 488 562 30,000  Level Indianapolis Center
03:51PM 40.2489 -82.5125 243° Southwest 479 551 30,000  Level Indianapolis Center
03:52PM 40.1811 -82.6978 244° Southwest 479 551 30,000  Level Indianapolis Center
03:53PM 40.1219 -82.8567 244° Southwest 481 554 30,000  Level Indianapolis Center
03:54PM 40.0622 -83.0142 244° Southwest 480 552 30,000  Level Indianapolis Center
03:55PM 40.0033 -83.1736 244° Southwest 482 555 30,000 -540 Level Indianapolis Center
03:56PM 39.9481 -83.3200 244° Southwest 479 551 28,900 -1,500 Descending Indianapolis Center
03:57PM 39.8786 -83.5011 243° Southwest 468 539 27,000 -1,680 Descending Indianapolis Center
03:58PM 39.8225 -83.6500 244° Southwest 462 532 25,500 -1,440 Descending Indianapolis Center
03:59PM 39.7667 -83.7939 243° Southwest 450 518 24,100 -780 Descending Indianapolis Center
04:00PM 39.7072 -83.9486 244° Southwest 444 511 24,000 -540 Descending Indianapolis Center
04:01PM 39.6519 -84.0917 243° Southwest 445 512 23,100 -1,260 Descending Indianapolis Center
04:02PM 39.5967 -84.2303 243° Southwest 435 501 21,500 -1,500 Descending Indianapolis Center
04:03PM 39.5431 -84.3683 243° Southwest 430 495 20,000 -1,440 Descending Indianapolis Center
04:04PM 39.4911 -84.5014 243° Southwest 418 481 18,500 -1,440 Descending Indianapolis Center
04:05PM 39.4400 -84.6306 243° Southwest 406 467 17,100 -1,560 Descending Indianapolis Center
04:06PM 39.3803 -84.7803 243° Southwest 393 452 15,300 -1,500 Descending Indianapolis Center
04:07PM 39.3333 -84.9019 244° Southwest 385 443 14,000 -840 Descending Indianapolis Center
04:09PM 39.2828 -85.0214 241° Southwest 379 436 13,600 -1,020 Descending Indianapolis Center
04:10PM 39.2369 -85.1411 244° Southwest 374 430 12,000 -1,500 Descending Indianapolis Center
04:11PM 39.1894 -85.2564 242° Southwest 367 422 10,500 -1,500 Descending Indianapolis Center
04:12PM 39.1494 -85.3567 243° Southwest 326 375 8,900 -2,340 Descending Indianapolis Center
04:13PM 39.1061 -85.4653 243° Southwest 291 335 5,700 -2,400 Descending Indianapolis Center
04:14PM 39.0700 -85.5531 242° Southwest 286 329 4,000 -1,320 Descending Indianapolis Center
04:15PM 39.0375 -85.6322 242° Southwest 273 314 3,000 -540 Descending Indianapolis Center
04:16PM 39.0094 -85.7019 243° Southwest 251 289 3,000  Level Indianapolis Center